Canefield Airport

Fair
26oC (79oF)

Fair


Winds: South easterly @ 03kts / 06km/h

Humidity: 76%

Barometric Pressure: 1016 mb

Accumulated Rainfall for December: 50.2 mm

Updated: 8:00 local time (12:00 UTC)

Douglas-Charles Airport

Cloudy
24oC (75oF)

Cloudy


Winds: West north westerly @ 04kts / 07km/h

Humidity: 87%

Barometric Pressure: 1018 mb

Accumulated Rainfall for December: 63.2 mm

Updated: 8:00 local time (12:00 UTC)

Satellite Imagery

Satellite Imagery
Click image for larger view. (Source: National Hurricane Center).

Aviation Routine Report (METAR)

Douglas-Charles: METAR TDPD 191200Z 29004KT 9999 BKN017 24/21 Q1018=
Canefield: METAR TDCF 191200Z 14003KT 9999 FEW024 26/21 Q1016=